sensor_id;sensor_type;location;lat;lon;timestamp;temperature;humidity
13205;DHT22;6667;52.634;9.226;2022-10-01T00:01:16;10.60;99.90
13205;DHT22;6667;52.634;9.226;2022-10-01T00:03:44;10.70;99.90
13205;DHT22;6667;52.634;9.226;2022-10-01T00:06:15;10.70;99.90
13205;DHT22;6667;52.634;9.226;2022-10-01T00:08:43;10.70;99.90
13205;DHT22;6667;52.634;9.226;2022-10-01T00:11:14;10.70;99.90
13205;DHT22;6667;52.634;9.226;2022-10-01T00:13:42;10.70;99.90
13205;DHT22;6667;52.634;9.226;2022-10-01T00:16:15;10.70;99.90
13205;DHT22;6667;52.634;9.226;2022-10-01T00:18:43;10.60;99.90
13205;DHT22;6667;52.634;9.226;2022-10-01T00:21:14;10.60;99.90
13205;DHT22;6667;52.634;9.226;2022-10-01T00:23:41;10.60;99.90
13205;DHT22;6667;52.634;9.226;2022-10-01T00:26:10;10.60;99.90
13205;DHT22;6667;52.634;9.226;2022-10-01T00:28:37;10.70;99.90
13205;DHT22;6667;52.634;9.226;2022-10-01T00:31:05;10.70;99.90
13205;DHT22;6667;52.634;9.226;2022-10-01T00:33:32;10.70;99.90
13205;DHT22;6667;52.634;9.226;2022-10-01T00:35:59;10.70;99.90
13205;DHT22;6667;52.634;9.226;2022-10-01T00:38:27;10.70;99.90
13205;DHT22;6667;52.634;9.226;2022-10-01T00:40:54;10.70;99.90
13205;DHT22;6667;52.634;9.226;2022-10-01T00:43:22;10.70;99.90
13205;DHT22;6667;52.634;9.226;2022-10-01T00:45:50;10.80;99.90
13205;DHT22;6667;52.634;9.226;2022-10-01T00:48:19;10.70;99.90
13205;DHT22;6667;52.634;9.226;2022-10-01T00:50:46;10.80;99.90
13205;DHT22;6667;52.634;9.226;2022-10-01T00:53:15;10.70;99.90
13205;DHT22;6667;52.634;9.226;2022-10-01T00:55:46;10.80;99.90
13205;DHT22;6667;52.634;9.226;2022-10-01T00:58:16;10.80;99.90
13205;DHT22;6667;52.634;9.226;2022-10-01T01:00:43;10.80;99.90
13205;DHT22;6667;52.634;9.226;2022-10-01T01:03:10;10.90;99.90
13205;DHT22;6667;52.634;9.226;2022-10-01T01:05:37;10.80;99.90
13205;DHT22;6667;52.634;9.226;2022-10-01T01:08:05;10.90;99.90
13205;DHT22;6667;52.634;9.226;2022-10-01T01:10:38;10.90;99.90
13205;DHT22;6667;52.634;9.226;2022-10-01T01:13:16;11.00;99.90
13205;DHT22;6667;52.634;9.226;2022-10-01T01:15:53;11.00;99.90
13205;DHT22;6667;52.634;9.226;2022-10-01T01:18:27;11.00;99.90
13205;DHT22;6667;52.634;9.226;2022-10-01T01:21:06;11.00;99.90
13205;DHT22;6667;52.634;9.226;2022-10-01T01:23:55;11.00;99.90
13205;DHT22;6667;52.634;9.226;2022-10-01T01:26:29;11.10;99.90
13205;DHT22;6667;52.634;9.226;2022-10-01T01:29:03;11.00;99.90
13205;DHT22;6667;52.634;9.226;2022-10-01T01:31:34;11.00;99.90
13205;DHT22;6667;52.634;9.226;2022-10-01T01:34:04;11.20;99.90
13205;DHT22;6667;52.634;9.226;2022-10-01T01:36:34;11.20;99.90
13205;DHT22;6667;52.634;9.226;2022-10-01T01:39:04;11.20;99.90
13205;DHT22;6667;52.634;9.226;2022-10-01T01:41:35;11.20;99.90
13205;DHT22;6667;52.634;9.226;2022-10-01T01:44:06;11.20;99.90
13205;DHT22;6667;52.634;9.226;2022-10-01T01:46:35;11.20;99.90
13205;DHT22;6667;52.634;9.226;2022-10-01T01:49:04;11.10;99.90
13205;DHT22;6667;52.634;9.226;2022-10-01T01:51:35;11.20;99.90
13205;DHT22;6667;52.634;9.226;2022-10-01T01:54:06;11.30;99.90
13205;DHT22;6667;52.634;9.226;2022-10-01T01:56:33;11.20;99.90
13205;DHT22;6667;52.634;9.226;2022-10-01T01:59:00;11.20;99.90
13205;DHT22;6667;52.634;9.226;2022-10-01T02:01:34;11.10;99.90
13205;DHT22;6667;52.634;9.226;2022-10-01T02:04:05;11.20;99.90
13205;DHT22;6667;52.634;9.226;2022-10-01T02:06:41;11.10;99.90
13205;DHT22;6667;52.634;9.226;2022-10-01T02:09:17;11.10;99.90
13205;DHT22;6667;52.634;9.226;2022-10-01T02:12:01;11.20;99.90
13205;DHT22;6667;52.634;9.226;2022-10-01T02:14:36;11.10;99.90
13205;DHT22;6667;52.634;9.226;2022-10-01T02:17:09;11.20;99.90
13205;DHT22;6667;52.634;9.226;2022-10-01T02:19:43;11.20;99.90
13205;DHT22;6667;52.634;9.226;2022-10-01T02:22:18;11.20;99.90
13205;DHT22;6667;52.634;9.226;2022-10-01T02:24:51;11.10;99.90
13205;DHT22;6667;52.634;9.226;2022-10-01T02:27:26;11.20;99.90
13205;DHT22;6667;52.634;9.226;2022-10-01T02:29:57;11.20;99.90
13205;DHT22;6667;52.634;9.226;2022-10-01T02:32:27;11.20;99.90
13205;DHT22;6667;52.634;9.226;2022-10-01T02:34:57;11.20;99.90
13205;DHT22;6667;52.634;9.226;2022-10-01T02:37:25;11.20;99.90
13205;DHT22;6667;52.634;9.226;2022-10-01T02:39:53;11.20;99.90
13205;DHT22;6667;52.634;9.226;2022-10-01T02:42:24;11.20;99.90
13205;DHT22;6667;52.634;9.226;2022-10-01T02:44:54;11.20;99.90
13205;DHT22;6667;52.634;9.226;2022-10-01T02:47:27;11.20;99.90
13205;DHT22;6667;52.634;9.226;2022-10-01T02:49:59;11.20;99.90
13205;DHT22;6667;52.634;9.226;2022-10-01T02:52:29;11.30;99.90
13205;DHT22;6667;52.634;9.226;2022-10-01T02:54:59;11.20;99.90
13205;DHT22;6667;52.634;9.226;2022-10-01T02:57:29;11.30;99.90
13205;DHT22;6667;52.634;9.226;2022-10-01T02:59:59;11.30;99.90
13205;DHT22;6667;52.634;9.226;2022-10-01T03:02:29;11.40;99.90
13205;DHT22;6667;52.634;9.226;2022-10-01T03:04:56;11.20;99.90
13205;DHT22;6667;52.634;9.226;2022-10-01T03:07:24;11.20;99.90
13205;DHT22;6667;52.634;9.226;2022-10-01T03:09:51;11.20;99.90
13205;DHT22;6667;52.634;9.226;2022-10-01T03:12:18;11.20;99.90
13205;DHT22;6667;52.634;9.226;2022-10-01T03:14:45;11.20;99.90
13205;DHT22;6667;52.634;9.226;2022-10-01T03:17:12;11.10;99.90
13205;DHT22;6667;52.634;9.226;2022-10-01T03:19:41;11.10;99.90
13205;DHT22;6667;52.634;9.226;2022-10-01T03:22:08;11.10;99.90
13205;DHT22;6667;52.634;9.226;2022-10-01T03:24:37;11.10;99.90
13205;DHT22;6667;52.634;9.226;2022-10-01T03:27:03;11.00;99.90
13205;DHT22;6667;52.634;9.226;2022-10-01T03:29:31;11.10;99.90
13205;DHT22;6667;52.634;9.226;2022-10-01T03:31:57;11.00;99.90
13205;DHT22;6667;52.634;9.226;2022-10-01T03:34:24;11.00;99.90
13205;DHT22;6667;52.634;9.226;2022-10-01T03:36:52;10.90;99.90
13205;DHT22;6667;52.634;9.226;2022-10-01T03:39:19;10.90;99.90
13205;DHT22;6667;52.634;9.226;2022-10-01T03:41:46;10.90;99.90
13205;DHT22;6667;52.634;9.226;2022-10-01T03:44:12;10.90;99.90
13205;DHT22;6667;52.634;9.226;2022-10-01T03:46:39;10.80;99.90
13205;DHT22;6667;52.634;9.226;2022-10-01T03:49:06;10.80;99.90
13205;DHT22;6667;52.634;9.226;2022-10-01T03:51:33;10.70;99.90
13205;DHT22;6667;52.634;9.226;2022-10-01T03:54:03;10.70;99.90
13205;DHT22;6667;52.634;9.226;2022-10-01T03:56:31;10.70;99.90
13205;DHT22;6667;52.634;9.226;2022-10-01T03:58:57;10.70;99.90
13205;DHT22;6667;52.634;9.226;2022-10-01T04:01:24;10.70;99.90
13205;DHT22;6667;52.634;9.226;2022-10-01T04:03:51;10.60;99.90
13205;DHT22;6667;52.634;9.226;2022-10-01T04:06:18;10.60;99.90
13205;DHT22;6667;52.634;9.226;2022-10-01T04:08:45;10.50;99.90
13205;DHT22;6667;52.634;9.226;2022-10-01T04:11:13;10.50;99.90
13205;DHT22;6667;52.634;9.226;2022-10-01T04:13:39;10.50;99.90
13205;DHT22;6667;52.634;9.226;2022-10-01T04:16:06;10.40;99.90
13205;DHT22;6667;52.634;9.226;2022-10-01T04:18:34;10.40;99.90
13205;DHT22;6667;52.634;9.226;2022-10-01T04:21:00;10.40;99.90
13205;DHT22;6667;52.634;9.226;2022-10-01T04:23:27;10.40;99.90
13205;DHT22;6667;52.634;9.226;2022-10-01T04:25:57;10.30;99.90
13205;DHT22;6667;52.634;9.226;2022-10-01T04:28:25;10.30;99.90
13205;DHT22;6667;52.634;9.226;2022-10-01T04:30:52;10.30;99.90
13205;DHT22;6667;52.634;9.226;2022-10-01T04:33:39;10.20;99.90
13205;DHT22;6667;52.634;9.226;2022-10-01T04:36:05;10.20;99.90
13205;DHT22;6667;52.634;9.226;2022-10-01T04:38:32;10.20;99.90
13205;DHT22;6667;52.634;9.226;2022-10-01T04:40:59;10.20;99.90
13205;DHT22;6667;52.634;9.226;2022-10-01T04:43:27;10.10;99.90
13205;DHT22;6667;52.634;9.226;2022-10-01T04:45:54;10.10;99.90
13205;DHT22;6667;52.634;9.226;2022-10-01T04:48:21;10.10;99.90
13205;DHT22;6667;52.634;9.226;2022-10-01T04:50:48;10.10;99.90
13205;DHT22;6667;52.634;9.226;2022-10-01T04:53:15;10.00;99.90
13205;DHT22;6667;52.634;9.226;2022-10-01T04:55:42;10.00;99.90
13205;DHT22;6667;52.634;9.226;2022-10-01T04:58:11;10.00;99.90
13205;DHT22;6667;52.634;9.226;2022-10-01T05:00:39;10.00;99.90
13205;DHT22;6667;52.634;9.226;2022-10-01T05:03:06;10.00;99.90
13205;DHT22;6667;52.634;9.226;2022-10-01T05:05:33;10.00;99.90
13205;DHT22;6667;52.634;9.226;2022-10-01T05:08:00;10.00;99.90
13205;DHT22;6667;52.634;9.226;2022-10-01T05:10:27;10.00;99.90
13205;DHT22;6667;52.634;9.226;2022-10-01T05:12:54;9.90;99.90
13205;DHT22;6667;52.634;9.226;2022-10-01T05:15:21;10.00;99.90
13205;DHT22;6667;52.634;9.226;2022-10-01T05:17:49;9.90;99.90
13205;DHT22;6667;52.634;9.226;2022-10-01T05:20:17;9.90;99.90
13205;DHT22;6667;52.634;9.226;2022-10-01T05:22:44;9.90;99.90
13205;DHT22;6667;52.634;9.226;2022-10-01T05:25:12;9.90;99.90
13205;DHT22;6667;52.634;9.226;2022-10-01T05:27:39;9.90;99.90
13205;DHT22;6667;52.634;9.226;2022-10-01T05:30:07;9.90;99.90
13205;DHT22;6667;52.634;9.226;2022-10-01T05:32:35;9.90;99.90
13205;DHT22;6667;52.634;9.226;2022-10-01T05:35:04;9.90;99.90
13205;DHT22;6667;52.634;9.226;2022-10-01T05:37:31;9.90;99.90
13205;DHT22;6667;52.634;9.226;2022-10-01T05:39:58;9.90;99.90
13205;DHT22;6667;52.634;9.226;2022-10-01T05:42:25;9.90;99.90
13205;DHT22;6667;52.634;9.226;2022-10-01T05:44:52;9.90;99.90
13205;DHT22;6667;52.634;9.226;2022-10-01T05:47:18;9.90;99.90
13205;DHT22;6667;52.634;9.226;2022-10-01T05:49:46;9.90;99.90
13205;DHT22;6667;52.634;9.226;2022-10-01T05:52:14;9.90;99.90
13205;DHT22;6667;52.634;9.226;2022-10-01T05:54:41;10.00;99.90
13205;DHT22;6667;52.634;9.226;2022-10-01T05:57:08;9.90;99.90
13205;DHT22;6667;52.634;9.226;2022-10-01T05:59:35;10.00;99.90
13205;DHT22;6667;52.634;9.226;2022-10-01T06:02:02;9.90;99.90
13205;DHT22;6667;52.634;9.226;2022-10-01T06:04:29;9.90;99.90
13205;DHT22;6667;52.634;9.226;2022-10-01T06:06:56;10.00;99.90
13205;DHT22;6667;52.634;9.226;2022-10-01T06:09:24;10.00;99.90
13205;DHT22;6667;52.634;9.226;2022-10-01T06:11:51;10.00;99.90
13205;DHT22;6667;52.634;9.226;2022-10-01T06:14:18;10.00;99.90
13205;DHT22;6667;52.634;9.226;2022-10-01T06:16:44;10.10;99.90
13205;DHT22;6667;52.634;9.226;2022-10-01T06:19:12;10.10;99.90
13205;DHT22;6667;52.634;9.226;2022-10-01T06:21:39;10.10;99.90
13205;DHT22;6667;52.634;9.226;2022-10-01T06:24:05;10.10;99.90
13205;DHT22;6667;52.634;9.226;2022-10-01T06:26:35;10.10;99.90
13205;DHT22;6667;52.634;9.226;2022-10-01T06:29:02;10.10;99.90
13205;DHT22;6667;52.634;9.226;2022-10-01T06:31:29;10.10;99.90
13205;DHT22;6667;52.634;9.226;2022-10-01T06:33:55;10.20;99.90
13205;DHT22;6667;52.634;9.226;2022-10-01T06:36:22;10.20;99.90
13205;DHT22;6667;52.634;9.226;2022-10-01T06:38:49;10.20;99.90
13205;DHT22;6667;52.634;9.226;2022-10-01T06:41:16;10.20;99.90
13205;DHT22;6667;52.634;9.226;2022-10-01T06:43:44;10.30;99.90
13205;DHT22;6667;52.634;9.226;2022-10-01T06:46:11;10.20;99.90
13205;DHT22;6667;52.634;9.226;2022-10-01T06:48:37;10.20;99.90
13205;DHT22;6667;52.634;9.226;2022-10-01T06:51:04;10.20;99.90
13205;DHT22;6667;52.634;9.226;2022-10-01T06:53:31;10.20;99.90
13205;DHT22;6667;52.634;9.226;2022-10-01T06:56:03;10.20;99.90
13205;DHT22;6667;52.634;9.226;2022-10-01T06:58:30;10.20;99.90
13205;DHT22;6667;52.634;9.226;2022-10-01T07:01:00;10.30;99.90
13205;DHT22;6667;52.634;9.226;2022-10-01T07:03:28;10.30;99.90
13205;DHT22;6667;52.634;9.226;2022-10-01T07:06:01;10.30;99.90
13205;DHT22;6667;52.634;9.226;2022-10-01T07:08:28;10.20;99.90
13205;DHT22;6667;52.634;9.226;2022-10-01T07:10:59;10.30;99.90
13205;DHT22;6667;52.634;9.226;2022-10-01T07:13:27;10.30;99.90
13205;DHT22;6667;52.634;9.226;2022-10-01T07:15:53;10.30;99.90
13205;DHT22;6667;52.634;9.226;2022-10-01T07:18:21;10.30;99.90
13205;DHT22;6667;52.634;9.226;2022-10-01T07:20:48;10.40;99.90
13205;DHT22;6667;52.634;9.226;2022-10-01T07:23:15;10.40;99.90
13205;DHT22;6667;52.634;9.226;2022-10-01T07:25:42;10.40;99.90
13205;DHT22;6667;52.634;9.226;2022-10-01T07:28:12;10.40;99.90
13205;DHT22;6667;52.634;9.226;2022-10-01T07:30:40;10.40;99.90
13205;DHT22;6667;52.634;9.226;2022-10-01T07:33:07;10.40;99.90
13205;DHT22;6667;52.634;9.226;2022-10-01T07:35:36;10.40;99.90
13205;DHT22;6667;52.634;9.226;2022-10-01T07:38:03;10.50;99.90
13205;DHT22;6667;52.634;9.226;2022-10-01T07:40:32;10.50;99.90
13205;DHT22;6667;52.634;9.226;2022-10-01T07:42:59;10.50;99.90
13205;DHT22;6667;52.634;9.226;2022-10-01T07:45:26;10.50;99.90
13205;DHT22;6667;52.634;9.226;2022-10-01T07:47:53;10.50;99.90
13205;DHT22;6667;52.634;9.226;2022-10-01T07:50:20;10.60;99.90
13205;DHT22;6667;52.634;9.226;2022-10-01T07:52:51;10.60;99.90
13205;DHT22;6667;52.634;9.226;2022-10-01T07:55:19;10.60;99.90
13205;DHT22;6667;52.634;9.226;2022-10-01T07:57:49;10.60;99.90
13205;DHT22;6667;52.634;9.226;2022-10-01T08:00:16;10.70;99.90
13205;DHT22;6667;52.634;9.226;2022-10-01T08:02:46;10.50;99.90
13205;DHT22;6667;52.634;9.226;2022-10-01T08:05:13;10.80;99.90
13205;DHT22;6667;52.634;9.226;2022-10-01T08:07:43;10.80;99.90
13205;DHT22;6667;52.634;9.226;2022-10-01T08:10:11;10.80;99.90
13205;DHT22;6667;52.634;9.226;2022-10-01T08:12:38;10.80;99.90
13205;DHT22;6667;52.634;9.226;2022-10-01T08:15:08;10.80;99.90
13205;DHT22;6667;52.634;9.226;2022-10-01T08:17:35;10.80;99.90
13205;DHT22;6667;52.634;9.226;2022-10-01T08:20:02;10.90;99.90
13205;DHT22;6667;52.634;9.226;2022-10-01T08:22:29;10.90;99.90
13205;DHT22;6667;52.634;9.226;2022-10-01T08:24:56;10.90;99.90
13205;DHT22;6667;52.634;9.226;2022-10-01T08:27:25;10.90;99.90
13205;DHT22;6667;52.634;9.226;2022-10-01T08:29:52;11.00;99.90
13205;DHT22;6667;52.634;9.226;2022-10-01T08:32:19;11.00;99.90
13205;DHT22;6667;52.634;9.226;2022-10-01T08:34:46;11.10;99.90
13205;DHT22;6667;52.634;9.226;2022-10-01T08:37:14;11.20;99.90
13205;DHT22;6667;52.634;9.226;2022-10-01T08:39:41;11.30;99.90
13205;DHT22;6667;52.634;9.226;2022-10-01T08:42:18;11.50;99.90
13205;DHT22;6667;52.634;9.226;2022-10-01T08:44:50;11.60;99.90
13205;DHT22;6667;52.634;9.226;2022-10-01T08:47:26;11.60;99.90
13205;DHT22;6667;52.634;9.226;2022-10-01T08:49:58;11.80;99.90
13205;DHT22;6667;52.634;9.226;2022-10-01T08:52:29;11.90;99.90
13205;DHT22;6667;52.634;9.226;2022-10-01T08:54:58;12.00;99.90
13205;DHT22;6667;52.634;9.226;2022-10-01T08:57:29;12.00;99.90
13205;DHT22;6667;52.634;9.226;2022-10-01T08:59:59;12.10;99.90
13205;DHT22;6667;52.634;9.226;2022-10-01T09:02:29;12.20;99.90
13205;DHT22;6667;52.634;9.226;2022-10-01T09:04:58;12.20;99.90
13205;DHT22;6667;52.634;9.226;2022-10-01T09:07:44;12.30;99.90
13205;DHT22;6667;52.634;9.226;2022-10-01T09:10:29;12.40;99.90
13205;DHT22;6667;52.634;9.226;2022-10-01T09:13:18;12.50;99.90
13205;DHT22;6667;52.634;9.226;2022-10-01T09:15:57;12.50;99.90
13205;DHT22;6667;52.634;9.226;2022-10-01T09:18:38;12.50;99.90
13205;DHT22;6667;52.634;9.226;2022-10-01T09:21:15;12.70;99.90
13205;DHT22;6667;52.634;9.226;2022-10-01T09:23:53;12.70;99.90
13205;DHT22;6667;52.634;9.226;2022-10-01T09:26:24;12.70;99.90
13205;DHT22;6667;52.634;9.226;2022-10-01T09:28:51;12.80;99.90
13205;DHT22;6667;52.634;9.226;2022-10-01T09:31:23;12.80;99.90
13205;DHT22;6667;52.634;9.226;2022-10-01T09:33:57;12.70;99.90
13205;DHT22;6667;52.634;9.226;2022-10-01T09:36:33;12.70;99.90
13205;DHT22;6667;52.634;9.226;2022-10-01T09:39:11;12.80;99.90
13205;DHT22;6667;52.634;9.226;2022-10-01T09:41:40;13.00;99.90
13205;DHT22;6667;52.634;9.226;2022-10-01T09:44:14;13.10;99.90
13205;DHT22;6667;52.634;9.226;2022-10-01T09:46:44;13.00;99.90
13205;DHT22;6667;52.634;9.226;2022-10-01T09:49:18;13.00;99.90
13205;DHT22;6667;52.634;9.226;2022-10-01T09:51:52;13.00;99.90
13205;DHT22;6667;52.634;9.226;2022-10-01T09:54:28;13.00;99.90
13205;DHT22;6667;52.634;9.226;2022-10-01T09:57:00;13.10;99.90
13205;DHT22;6667;52.634;9.226;2022-10-01T09:59:33;13.30;99.90
13205;DHT22;6667;52.634;9.226;2022-10-01T10:02:11;13.20;99.90
13205;DHT22;6667;52.634;9.226;2022-10-01T10:04:39;13.30;99.90
13205;DHT22;6667;52.634;9.226;2022-10-01T10:07:06;13.30;99.90
13205;DHT22;6667;52.634;9.226;2022-10-01T10:09:34;13.30;99.90
13205;DHT22;6667;52.634;9.226;2022-10-01T10:12:01;13.40;99.90
13205;DHT22;6667;52.634;9.226;2022-10-01T10:14:30;13.40;99.90
13205;DHT22;6667;52.634;9.226;2022-10-01T10:17:05;13.40;99.90
13205;DHT22;6667;52.634;9.226;2022-10-01T10:19:32;13.50;99.90
13205;DHT22;6667;52.634;9.226;2022-10-01T10:22:10;13.50;99.90
13205;DHT22;6667;52.634;9.226;2022-10-01T10:24:37;13.60;99.90
13205;DHT22;6667;52.634;9.226;2022-10-01T10:27:05;13.70;99.90
13205;DHT22;6667;52.634;9.226;2022-10-01T10:29:33;13.70;99.90
13205;DHT22;6667;52.634;9.226;2022-10-01T10:32:06;13.70;99.90
13205;DHT22;6667;52.634;9.226;2022-10-01T10:34:37;13.70;99.90
13205;DHT22;6667;52.634;9.226;2022-10-01T10:37:10;13.80;99.90
13205;DHT22;6667;52.634;9.226;2022-10-01T10:39:40;13.80;99.90
13205;DHT22;6667;52.634;9.226;2022-10-01T10:42:13;13.80;99.90
13205;DHT22;6667;52.634;9.226;2022-10-01T10:44:42;13.80;99.90
13205;DHT22;6667;52.634;9.226;2022-10-01T10:47:13;13.90;99.90
13205;DHT22;6667;52.634;9.226;2022-10-01T10:49:43;13.90;99.90
13205;DHT22;6667;52.634;9.226;2022-10-01T10:52:19;14.00;99.90
13205;DHT22;6667;52.634;9.226;2022-10-01T10:54:48;14.10;99.90
13205;DHT22;6667;52.634;9.226;2022-10-01T10:57:18;14.00;99.90
13205;DHT22;6667;52.634;9.226;2022-10-01T10:59:54;14.00;99.90
13205;DHT22;6667;52.634;9.226;2022-10-01T11:02:24;13.90;99.90
13205;DHT22;6667;52.634;9.226;2022-10-01T11:04:52;13.90;99.90
13205;DHT22;6667;52.634;9.226;2022-10-01T11:07:22;14.00;99.90
13205;DHT22;6667;52.634;9.226;2022-10-01T11:10:09;13.90;99.90
13205;DHT22;6667;52.634;9.226;2022-10-01T11:12:59;13.90;99.90
13205;DHT22;6667;52.634;9.226;2022-10-01T11:15:44;14.00;99.90
13205;DHT22;6667;52.634;9.226;2022-10-01T11:18:37;14.10;99.90
13205;DHT22;6667;52.634;9.226;2022-10-01T11:21:21;14.50;99.90
13205;DHT22;6667;52.634;9.226;2022-10-01T11:24:15;14.90;99.90
13205;DHT22;6667;52.634;9.226;2022-10-01T11:26:52;15.20;99.90
13205;DHT22;6667;52.634;9.226;2022-10-01T11:29:29;15.70;99.90
13205;DHT22;6667;52.634;9.226;2022-10-01T11:32:06;15.60;99.90
13205;DHT22;6667;52.634;9.226;2022-10-01T11:34:56;15.50;99.90
13205;DHT22;6667;52.634;9.226;2022-10-01T11:37:37;15.60;99.90
13205;DHT22;6667;52.634;9.226;2022-10-01T11:40:13;16.10;99.90
13205;DHT22;6667;52.634;9.226;2022-10-01T11:42:43;16.40;99.90
13205;DHT22;6667;52.634;9.226;2022-10-01T11:45:15;16.50;99.90
13205;DHT22;6667;52.634;9.226;2022-10-01T11:47:49;16.50;99.90
13205;DHT22;6667;52.634;9.226;2022-10-01T11:50:19;16.60;99.90
13205;DHT22;6667;52.634;9.226;2022-10-01T11:52:51;16.80;99.90
13205;DHT22;6667;52.634;9.226;2022-10-01T11:55:22;17.00;99.90
13205;DHT22;6667;52.634;9.226;2022-10-01T11:58:14;17.50;99.90
13205;DHT22;6667;52.634;9.226;2022-10-01T12:01:04;17.60;99.90
13205;DHT22;6667;52.634;9.226;2022-10-01T12:03:39;17.70;99.90
13205;DHT22;6667;52.634;9.226;2022-10-01T12:06:10;17.50;99.90
13205;DHT22;6667;52.634;9.226;2022-10-01T12:08:41;17.40;99.90
13205;DHT22;6667;52.634;9.226;2022-10-01T12:11:16;17.80;99.90
13205;DHT22;6667;52.634;9.226;2022-10-01T12:13:47;18.00;99.90
13205;DHT22;6667;52.634;9.226;2022-10-01T12:16:23;17.90;99.90
13205;DHT22;6667;52.634;9.226;2022-10-01T12:18:57;18.10;99.90
13205;DHT22;6667;52.634;9.226;2022-10-01T12:21:32;18.00;99.90
13205;DHT22;6667;52.634;9.226;2022-10-01T12:24:03;18.30;99.90
13205;DHT22;6667;52.634;9.226;2022-10-01T12:26:39;18.50;99.90
13205;DHT22;6667;52.634;9.226;2022-10-01T12:29:13;18.40;99.90
13205;DHT22;6667;52.634;9.226;2022-10-01T12:31:48;17.90;99.90
13205;DHT22;6667;52.634;9.226;2022-10-01T12:34:21;17.50;99.90
13205;DHT22;6667;52.634;9.226;2022-10-01T12:37:02;17.40;99.90
13205;DHT22;6667;52.634;9.226;2022-10-01T12:39:48;17.60;99.90
13205;DHT22;6667;52.634;9.226;2022-10-01T12:42:27;17.70;99.90
13205;DHT22;6667;52.634;9.226;2022-10-01T12:45:08;17.80;99.90
13205;DHT22;6667;52.634;9.226;2022-10-01T12:47:43;17.60;99.90
13205;DHT22;6667;52.634;9.226;2022-10-01T12:50:29;17.90;99.90
13205;DHT22;6667;52.634;9.226;2022-10-01T12:53:16;18.00;99.90
13205;DHT22;6667;52.634;9.226;2022-10-01T12:55:56;17.70;99.90
13205;DHT22;6667;52.634;9.226;2022-10-01T12:58:43;17.60;99.90
13205;DHT22;6667;52.634;9.226;2022-10-01T13:01:21;17.40;99.90
13205;DHT22;6667;52.634;9.226;2022-10-01T13:04:06;17.20;99.90
13205;DHT22;6667;52.634;9.226;2022-10-01T13:06:47;17.10;99.90
13205;DHT22;6667;52.634;9.226;2022-10-01T13:09:23;17.20;99.90
13205;DHT22;6667;52.634;9.226;2022-10-01T13:12:07;17.10;99.90
13205;DHT22;6667;52.634;9.226;2022-10-01T13:14:38;17.10;99.90
13205;DHT22;6667;52.634;9.226;2022-10-01T13:17:10;16.90;99.90
13205;DHT22;6667;52.634;9.226;2022-10-01T13:19:45;16.70;99.90
13205;DHT22;6667;52.634;9.226;2022-10-01T13:22:17;16.60;99.90
13205;DHT22;6667;52.634;9.226;2022-10-01T13:24:56;16.50;99.90
13205;DHT22;6667;52.634;9.226;2022-10-01T13:27:30;16.50;99.90
13205;DHT22;6667;52.634;9.226;2022-10-01T13:30:02;16.20;99.90
13205;DHT22;6667;52.634;9.226;2022-10-01T13:32:32;15.80;99.90
13205;DHT22;6667;52.634;9.226;2022-10-01T13:35:00;15.50;99.90
13205;DHT22;6667;52.634;9.226;2022-10-01T13:37:34;15.30;99.90
13205;DHT22;6667;52.634;9.226;2022-10-01T13:40:03;15.00;99.90
13205;DHT22;6667;52.634;9.226;2022-10-01T13:42:39;15.10;99.90
13205;DHT22;6667;52.634;9.226;2022-10-01T13:45:20;14.90;99.90
13205;DHT22;6667;52.634;9.226;2022-10-01T13:47:48;14.80;99.90
13205;DHT22;6667;52.634;9.226;2022-10-01T13:50:19;14.60;99.90
13205;DHT22;6667;52.634;9.226;2022-10-01T13:52:46;14.70;99.90
13205;DHT22;6667;52.634;9.226;2022-10-01T13:55:26;14.60;99.90
13205;DHT22;6667;52.634;9.226;2022-10-01T13:58:04;14.50;99.90
13205;DHT22;6667;52.634;9.226;2022-10-01T14:00:31;14.40;99.90
13205;DHT22;6667;52.634;9.226;2022-10-01T14:03:03;14.40;99.90
13205;DHT22;6667;52.634;9.226;2022-10-01T14:05:35;14.30;99.90
13205;DHT22;6667;52.634;9.226;2022-10-01T14:08:10;14.30;99.90
13205;DHT22;6667;52.634;9.226;2022-10-01T14:10:44;14.50;99.90
13205;DHT22;6667;52.634;9.226;2022-10-01T14:13:35;14.60;99.90
13205;DHT22;6667;52.634;9.226;2022-10-01T14:16:26;14.70;99.90
13205;DHT22;6667;52.634;9.226;2022-10-01T14:18:53;14.80;99.90
13205;DHT22;6667;52.634;9.226;2022-10-01T14:21:37;14.80;99.90
13205;DHT22;6667;52.634;9.226;2022-10-01T14:24:13;14.90;99.90
13205;DHT22;6667;52.634;9.226;2022-10-01T14:26:49;14.70;99.90
13205;DHT22;6667;52.634;9.226;2022-10-01T14:29:28;14.70;99.90
13205;DHT22;6667;52.634;9.226;2022-10-01T14:32:07;14.50;99.90
13205;DHT22;6667;52.634;9.226;2022-10-01T14:34:45;14.60;99.90
13205;DHT22;6667;52.634;9.226;2022-10-01T14:37:16;14.60;99.90
13205;DHT22;6667;52.634;9.226;2022-10-01T14:39:44;14.40;99.90
13205;DHT22;6667;52.634;9.226;2022-10-01T14:42:16;14.30;99.90
13205;DHT22;6667;52.634;9.226;2022-10-01T14:44:44;14.30;99.90
13205;DHT22;6667;52.634;9.226;2022-10-01T14:47:15;14.40;99.90
13205;DHT22;6667;52.634;9.226;2022-10-01T14:49:42;14.30;99.90
13205;DHT22;6667;52.634;9.226;2022-10-01T14:52:17;14.30;99.90
13205;DHT22;6667;52.634;9.226;2022-10-01T14:54:47;14.40;99.90
13205;DHT22;6667;52.634;9.226;2022-10-01T14:57:28;14.20;99.90
13205;DHT22;6667;52.634;9.226;2022-10-01T14:59:56;14.10;99.90
13205;DHT22;6667;52.634;9.226;2022-10-01T15:02:25;14.00;99.90
13205;DHT22;6667;52.634;9.226;2022-10-01T15:04:55;14.00;99.90
13205;DHT22;6667;52.634;9.226;2022-10-01T15:07:22;13.90;99.90
13205;DHT22;6667;52.634;9.226;2022-10-01T15:09:49;14.00;99.90
13205;DHT22;6667;52.634;9.226;2022-10-01T15:12:21;14.00;99.90
13205;DHT22;6667;52.634;9.226;2022-10-01T15:14:52;14.10;99.90
13205;DHT22;6667;52.634;9.226;2022-10-01T15:17:22;14.10;99.90
13205;DHT22;6667;52.634;9.226;2022-10-01T15:19:52;14.10;99.90
13205;DHT22;6667;52.634;9.226;2022-10-01T15:22:22;14.10;99.90
13205;DHT22;6667;52.634;9.226;2022-10-01T15:24:52;14.10;99.90
13205;DHT22;6667;52.634;9.226;2022-10-01T15:27:23;14.10;99.90
13205;DHT22;6667;52.634;9.226;2022-10-01T15:29:52;14.20;99.90
13205;DHT22;6667;52.634;9.226;2022-10-01T15:32:21;14.10;99.90
13205;DHT22;6667;52.634;9.226;2022-10-01T15:34:50;14.20;99.90
13205;DHT22;6667;52.634;9.226;2022-10-01T15:37:22;14.20;99.90
13205;DHT22;6667;52.634;9.226;2022-10-01T15:39:51;14.10;99.90
13205;DHT22;6667;52.634;9.226;2022-10-01T15:42:24;14.10;99.90
13205;DHT22;6667;52.634;9.226;2022-10-01T15:45:11;14.10;99.90
13205;DHT22;6667;52.634;9.226;2022-10-01T15:47:48;14.10;99.90
13205;DHT22;6667;52.634;9.226;2022-10-01T15:50:18;14.10;99.90
13205;DHT22;6667;52.634;9.226;2022-10-01T15:52:49;13.90;99.90
13205;DHT22;6667;52.634;9.226;2022-10-01T15:55:18;13.90;99.90
13205;DHT22;6667;52.634;9.226;2022-10-01T15:57:50;13.80;99.90
13205;DHT22;6667;52.634;9.226;2022-10-01T16:00:22;13.90;99.90
13205;DHT22;6667;52.634;9.226;2022-10-01T16:02:49;13.80;99.90
13205;DHT22;6667;52.634;9.226;2022-10-01T16:05:19;13.90;99.90
13205;DHT22;6667;52.634;9.226;2022-10-01T16:07:48;13.80;99.90
13205;DHT22;6667;52.634;9.226;2022-10-01T16:10:31;13.80;99.90
13205;DHT22;6667;52.634;9.226;2022-10-01T16:13:10;13.80;99.90